Time;durP1;ratioP1;P1;durP2;ratioP2;P2;SDS_P1;SDS_P2;PMS_P1;PMS_P2;Temp;Humidity;BMP_temperature;BMP_pressure;BME280_temperature;BME280_humidity;BME280_pressure;Samples;Min_cycle;Max_cycle;Signal;HPM_P1;HPM_P2
2023/12/25 00:02:12;;;;;;;6.57;0.95;;;10.90;99.90;;;;;;5032955;28;20284;-60
2023/12/25 00:04:41;;;;;;;3.15;0.77;;;10.90;99.90;;;;;;5032884;28;20297;-60
2023/12/25 00:07:10;;;;;;;5.28;0.90;;;11.00;99.90;;;;;;5031705;28;20297;-60
2023/12/25 00:09:38;;;;;;;6.95;1.00;;;10.90;99.90;;;;;;5025340;28;20198;-60
2023/12/25 00:12:07;;;;;;;4.22;0.95;;;10.90;99.90;;;;;;5023823;28;20305;-59
2023/12/25 00:14:34;;;;;;;6.75;0.90;;;10.90;99.90;;;;;;5030307;28;20211;-59
2023/12/25 00:17:02;;;;;;;5.53;1.13;;;10.90;99.90;;;;;;5018920;28;20208;-60
2023/12/25 00:19:30;;;;;;;8.98;1.05;;;10.90;99.90;;;;;;5029605;28;20771;-60
2023/12/25 00:22:00;;;;;;;3.33;0.75;;;10.90;99.90;;;;;;5029610;28;20211;-59
2023/12/25 00:24:27;;;;;;;1.55;0.90;;;10.90;99.90;;;;;;5028464;28;20195;-60
2023/12/25 00:26:55;;;;;;;3.15;1.13;;;10.90;99.90;;;;;;5024831;28;20258;-60
2023/12/25 00:29:23;;;;;;;7.47;1.38;;;10.90;99.90;;;;;;5019782;28;20732;-60
2023/12/25 00:31:51;;;;;;;3.75;1.00;;;10.90;99.90;;;;;;5018821;28;20214;-60
2023/12/25 00:34:19;;;;;;;5.40;1.20;;;10.90;99.90;;;;;;5029079;28;21033;-59
2023/12/25 00:36:47;;;;;;;2.67;1.00;;;10.90;99.90;;;;;;5023691;28;20206;-60
2023/12/25 00:39:16;;;;;;;5.07;1.33;;;10.90;99.90;;;;;;5023365;28;20276;-60
2023/12/25 00:41:44;;;;;;;4.88;1.35;;;11.00;99.90;;;;;;5028242;28;20203;-60
2023/12/25 00:44:12;;;;;;;7.50;0.80;;;10.90;99.90;;;;;;5032437;28;20223;-60
2023/12/25 00:46:40;;;;;;;4.70;1.20;;;11.00;99.90;;;;;;5031540;28;20587;-60
2023/12/25 00:49:09;;;;;;;3.53;1.20;;;10.90;99.90;;;;;;5021045;28;20694;-60
2023/12/25 00:51:38;;;;;;;4.30;1.17;;;11.00;99.90;;;;;;5028946;28;20230;-60
2023/12/25 00:54:05;;;;;;;5.07;0.90;;;11.00;99.90;;;;;;5028703;28;20258;-59
2023/12/25 00:56:35;;;;;;;3.83;1.05;;;10.90;99.90;;;;;;5028028;28;20226;-59
2023/12/25 00:59:03;;;;;;;2.97;0.90;;;11.00;99.90;;;;;;5031878;28;20217;-60
2023/12/25 01:01:31;;;;;;;3.42;0.75;;;10.90;99.90;;;;;;5032042;28;20249;-60
2023/12/25 01:03:59;;;;;;;4.57;1.00;;;11.00;99.90;;;;;;5031359;28;20288;-58
2023/12/25 01:06:27;;;;;;;7.15;1.27;;;10.90;99.90;;;;;;5031528;28;20213;-57
2023/12/25 01:08:56;;;;;;;4.90;0.85;;;11.00;99.90;;;;;;5029346;28;20264;-58
2023/12/25 01:11:25;;;;;;;3.45;1.00;;;11.00;99.90;;;;;;5023414;28;20209;-58
2023/12/25 01:13:54;;;;;;;3.40;1.17;;;11.00;99.90;;;;;;5028956;28;20256;-58
2023/12/25 01:16:23;;;;;;;4.20;0.90;;;11.00;99.90;;;;;;5020332;28;20269;-59
2023/12/25 01:18:51;;;;;;;3.80;1.20;;;11.00;99.90;;;;;;5018988;28;20261;-59
2023/12/25 01:21:19;;;;;;;4.70;0.90;;;11.00;99.90;;;;;;5024968;28;20211;-59
2023/12/25 01:23:47;;;;;;;5.63;0.85;;;11.00;99.90;;;;;;5030949;28;20285;-57
2023/12/25 01:26:15;;;;;;;3.97;1.00;;;10.90;99.90;;;;;;5031592;28;20206;-57
2023/12/25 01:28:43;;;;;;;5.35;1.10;;;10.90;99.90;;;;;;5027564;28;20214;-59
2023/12/25 01:31:12;;;;;;;7.90;1.42;;;10.90;99.90;;;;;;5017598;28;20289;-57
2023/12/25 01:33:40;;;;;;;5.55;1.00;;;10.90;99.90;;;;;;5022997;28;20290;-59
2023/12/25 01:36:08;;;;;;;4.57;1.20;;;10.90;99.90;;;;;;5030740;28;20230;-59
2023/12/25 01:38:36;;;;;;;1.88;0.73;;;11.00;99.90;;;;;;5022687;28;20276;-57
2023/12/25 01:41:04;;;;;;;8.60;2.05;;;11.00;99.90;;;;;;5023190;28;20198;-58
2023/12/25 01:43:40;;;;;;;3.25;1.30;;;10.90;99.90;;;;;;5030454;28;20305;-59
2023/12/25 01:46:08;;;;;;;2.38;0.93;;;10.90;99.90;;;;;;5031066;28;20353;-57
2023/12/25 01:48:37;;;;;;;4.50;0.73;;;11.00;99.90;;;;;;5030872;28;20651;-58
2023/12/25 01:51:05;;;;;;;4.78;1.23;;;11.00;99.90;;;;;;5031068;28;20214;-59
2023/12/25 01:53:33;;;;;;;7.00;1.00;;;11.00;99.90;;;;;;5030641;28;20294;-57
2023/12/25 01:56:01;;;;;;;3.67;1.25;;;11.00;99.90;;;;;;5031095;28;20217;-58
2023/12/25 01:58:29;;;;;;;6.95;1.38;;;11.00;99.90;;;;;;5030351;28;20261;-59
2023/12/25 02:00:57;;;;;;;4.03;1.70;;;11.00;99.90;;;;;;5031051;28;20253;-58
2023/12/25 02:03:25;;;;;;;7.82;1.20;;;11.10;99.90;;;;;;5030209;28;20237;-57
2023/12/25 02:05:54;;;;;;;2.97;1.00;;;11.10;99.90;;;;;;5030930;28;20207;-59
2023/12/25 02:08:22;;;;;;;4.93;1.30;;;11.00;99.90;;;;;;5030214;28;20658;-59
2023/12/25 02:10:50;;;;;;;7.70;1.77;;;11.00;99.90;;;;;;5024560;28;20683;-58
2023/12/25 02:13:18;;;;;;;3.25;1.00;;;11.00;99.90;;;;;;5021705;28;20326;-60
2023/12/25 02:15:46;;;;;;;8.45;1.20;;;11.00;99.90;;;;;;5024819;28;20738;-58
2023/12/25 02:18:14;;;;;;;5.00;1.10;;;11.00;99.90;;;;;;5020370;28;20207;-60
2023/12/25 02:20:42;;;;;;;4.63;1.42;;;11.00;99.90;;;;;;5020633;28;20218;-60
2023/12/25 02:23:11;;;;;;;5.45;1.08;;;11.00;99.90;;;;;;5026825;28;20219;-58
2023/12/25 02:25:53;;;;;;;4.85;1.58;;;11.00;99.90;;;;;;5019644;28;20238;-57
2023/12/25 02:28:22;;;;;;;5.85;1.00;;;11.00;99.90;;;;;;5023258;28;20230;-57
2023/12/25 02:30:51;;;;;;;5.88;1.45;;;11.00;99.90;;;;;;5030590;28;20238;-59
2023/12/25 02:33:19;;;;;;;6.13;1.23;;;11.00;99.90;;;;;;5030801;28;20324;-58
2023/12/25 02:35:47;;;;;;;1.77;0.90;;;11.00;99.90;;;;;;5030179;28;20226;-58
2023/12/25 02:38:15;;;;;;;3.25;1.25;;;11.00;99.90;;;;;;5019878;28;20286;-58
2023/12/25 02:40:43;;;;;;;4.88;1.02;;;11.00;99.90;;;;;;5025029;28;20213;-59
2023/12/25 02:43:12;;;;;;;6.07;1.27;;;11.00;99.90;;;;;;5025362;28;20783;-57
2023/12/25 02:45:40;;;;;;;7.38;1.08;;;11.00;99.90;;;;;;5030485;28;20234;-59
2023/12/25 02:48:08;;;;;;;6.70;1.60;;;11.00;99.90;;;;;;5029211;28;20719;-59
2023/12/25 02:50:36;;;;;;;3.38;1.13;;;11.00;99.90;;;;;;5030600;28;20249;-57
2023/12/25 02:53:04;;;;;;;6.90;1.58;;;11.00;99.90;;;;;;5030256;28;20226;-59
2023/12/25 02:55:32;;;;;;;5.95;1.30;;;11.00;99.90;;;;;;5026815;28;20228;-59
2023/12/25 02:58:00;;;;;;;3.95;1.25;;;11.00;99.90;;;;;;5026396;28;20700;-59
2023/12/25 03:00:29;;;;;;;5.05;1.13;;;11.00;99.90;;;;;;5030885;28;20207;-59
2023/12/25 03:02:57;;;;;;;4.07;1.00;;;11.00;99.90;;;;;;5030185;28;20285;-60
2023/12/25 03:05:25;;;;;;;7.20;1.23;;;11.00;99.90;;;;;;5024818;28;20968;-57
2023/12/25 03:07:53;;;;;;;4.40;1.30;;;11.00;99.90;;;;;;5029034;28;20203;-58
2023/12/25 03:10:22;;;;;;;4.03;0.90;;;11.00;99.90;;;;;;5028132;28;20199;-59
2023/12/25 03:12:49;;;;;;;5.22;1.45;;;11.00;99.90;;;;;;5027225;28;20234;-60
2023/12/25 03:15:17;;;;;;;5.63;1.15;;;10.90;99.90;;;;;;5025491;28;20258;-58
2023/12/25 03:17:47;;;;;;;9.25;1.30;;;11.00;99.90;;;;;;5033724;28;20653;-59
2023/12/25 03:20:15;;;;;;;4.95;1.10;;;10.90;99.90;;;;;;5033728;28;20577;-59
2023/12/25 03:22:44;;;;;;;10.02;1.05;;;10.90;99.90;;;;;;5033657;28;20237;-58
2023/12/25 03:25:12;;;;;;;2.40;0.88;;;10.90;99.90;;;;;;5033277;28;20202;-59
2023/12/25 03:27:40;;;;;;;3.25;0.90;;;10.90;99.90;;;;;;5033554;28;20210;-57
2023/12/25 03:30:08;;;;;;;6.53;1.00;;;10.90;99.90;;;;;;5027717;28;20239;-59
2023/12/25 03:32:36;;;;;;;2.45;0.63;;;10.90;99.90;;;;;;5027484;28;20219;-57
2023/12/25 03:35:06;;;;;;;1.23;0.80;;;10.90;99.90;;;;;;5027180;28;20722;-58
2023/12/25 03:37:34;;;;;;;2.95;0.50;;;10.90;99.90;;;;;;5027411;28;20744;-58
2023/12/25 03:40:02;;;;;;;1.67;0.50;;;10.90;99.90;;;;;;5030080;28;20748;-58
2023/12/25 03:42:30;;;;;;;3.13;0.50;;;10.80;99.90;;;;;;5043862;22;20230;-54
2023/12/25 03:44:58;;;;;;;1.85;0.57;;;10.80;99.90;;;;;;5036553;28;20253;-54
2023/12/25 03:47:28;;;;;;;3.10;0.43;;;10.80;99.90;;;;;;5042365;28;20210;-56
2023/12/25 03:49:56;;;;;;;1.63;0.40;;;10.80;99.90;;;;;;5042412;28;20213;-55
2023/12/25 03:52:25;;;;;;;1.17;0.50;;;10.80;99.90;;;;;;5040195;28;20352;-55
2023/12/25 03:54:53;;;;;;;0.80;0.43;;;10.80;99.90;;;;;;5055507;28;20654;-59
2023/12/25 03:57:21;;;;;;;1.88;0.47;;;10.80;99.90;;;;;;5071542;28;20229;-54
2023/12/25 03:59:49;;;;;;;1.38;0.55;;;10.80;99.90;;;;;;5066921;28;20649;-55
2023/12/25 04:02:17;;;;;;;5.03;0.63;;;10.80;99.90;;;;;;5066425;28;20201;-55
2023/12/25 04:04:45;;;;;;;2.40;0.35;;;10.80;99.90;;;;;;5066539;28;20213;-56
2023/12/25 04:07:13;;;;;;;1.55;0.40;;;10.80;99.90;;;;;;5065161;28;20288;-55
2023/12/25 04:09:42;;;;;;;0.52;0.43;;;10.80;99.90;;;;;;5068226;28;20666;-55
2023/12/25 04:12:10;;;;;;;4.30;0.50;;;10.80;99.90;;;;;;5073015;28;20262;-60
2023/12/25 04:14:38;;;;;;;0.32;0.25;;;10.80;99.90;;;;;;5072042;28;20677;-57
2023/12/25 04:17:06;;;;;;;1.40;0.40;;;10.80;99.90;;;;;;5065582;28;20205;-59
2023/12/25 04:19:34;;;;;;;1.25;0.43;;;10.80;99.90;;;;;;5066931;28;20213;-55
2023/12/25 04:22:02;;;;;;;4.15;0.60;;;10.80;99.90;;;;;;5062838;28;20205;-57
2023/12/25 04:24:30;;;;;;;1.00;0.40;;;10.80;99.90;;;;;;5065840;28;20262;-56
2023/12/25 04:27:00;;;;;;;1.35;0.40;;;10.80;99.90;;;;;;5065524;28;20209;-58
2023/12/25 04:29:28;;;;;;;3.70;0.40;;;10.80;99.90;;;;;;5065411;28;20198;-54
2023/12/25 04:31:55;;;;;;;1.88;0.30;;;10.80;99.90;;;;;;5069730;28;20209;-56
2023/12/25 04:34:24;;;;;;;1.60;0.47;;;10.80;99.90;;;;;;5063101;28;20252;-55
2023/12/25 04:36:52;;;;;;;2.95;0.38;;;10.80;99.90;;;;;;5072065;28;20233;-54
2023/12/25 04:39:20;;;;;;;0.80;0.40;;;10.80;99.90;;;;;;5068652;28;20263;-56
2023/12/25 04:41:48;;;;;;;7.40;0.40;;;10.80;99.90;;;;;;5062194;28;20241;-54
2023/12/25 04:44:17;;;;;;;0.80;0.40;;;10.80;99.90;;;;;;5070398;28;20721;-55
2023/12/25 04:46:45;;;;;;;2.00;0.35;;;10.80;99.90;;;;;;5072089;28;20216;-57
2023/12/25 04:49:13;;;;;;;0.43;0.38;;;10.80;99.90;;;;;;5070749;28;20201;-58
2023/12/25 04:51:41;;;;;;;1.60;0.30;;;10.80;99.90;;;;;;5062009;28;20213;-59
2023/12/25 04:54:09;;;;;;;0.13;0.13;;;10.80;99.90;;;;;;5063345;28;20244;-59
2023/12/25 04:56:36;;;;;;;1.08;0.30;;;10.80;99.90;;;;;;5064731;28;20228;-57
2023/12/25 04:59:04;;;;;;;1.27;0.65;;;10.80;99.90;;;;;;5064509;28;20209;-55
2023/12/25 05:01:34;;;;;;;0.93;0.25;;;10.80;99.90;;;;;;5065536;28;20201;-54
2023/12/25 05:04:01;;;;;;;0.75;0.13;;;10.80;99.90;;;;;;5071679;28;20328;-57
2023/12/25 05:06:29;;;;;;;0.82;0.20;;;10.80;99.90;;;;;;5071723;28;20232;-57
2023/12/25 05:08:57;;;;;;;0.75;0.20;;;10.80;99.90;;;;;;5071235;28;20205;-55
2023/12/25 05:11:26;;;;;;;0.43;0.30;;;10.80;99.90;;;;;;5071801;28;20206;-56
2023/12/25 05:13:54;;;;;;;1.23;0.13;;;10.80;99.90;;;;;;5071331;28;20235;-57
2023/12/25 05:16:22;;;;;;;0.65;0.20;;;10.80;99.90;;;;;;5057443;28;20255;-56
2023/12/25 05:18:51;;;;;;;0.10;0.10;;;10.70;99.90;;;;;;5064360;28;20241;-58
2023/12/25 05:21:19;;;;;;;0.40;0.15;;;10.80;99.90;;;;;;5062727;28;20205;-55
2023/12/25 05:23:47;;;;;;;0.52;0.10;;;10.80;99.90;;;;;;5060919;28;20766;-57
2023/12/25 05:26:15;;;;;;;1.20;0.10;;;10.70;99.90;;;;;;5062987;28;20202;-54
2023/12/25 05:28:43;;;;;;;1.85;0.10;;;10.70;99.90;;;;;;5063801;28;20623;-55
2023/12/25 05:31:12;;;;;;;0.10;0.10;;;10.70;99.90;;;;;;5071181;28;20260;-56
2023/12/25 05:33:40;;;;;;;1.17;0.20;;;10.70;99.90;;;;;;5071497;28;20260;-56
2023/12/25 05:36:10;;;;;;;0.20;0.13;;;10.70;99.90;;;;;;5070757;28;20221;-58
2023/12/25 05:38:38;;;;;;;0.22;0.10;;;10.60;99.90;;;;;;5071181;28;20205;-60
2023/12/25 05:41:06;;;;;;;0.30;0.10;;;10.60;99.90;;;;;;5071305;28;20684;-58
2023/12/25 05:43:34;;;;;;;0.75;0.13;;;10.60;99.90;;;;;;5071211;28;20237;-59
2023/12/25 05:46:02;;;;;;;1.63;0.20;;;10.50;99.90;;;;;;5070611;28;20237;-56
2023/12/25 05:48:30;;;;;;;0.10;0.10;;;10.50;99.90;;;;;;5071018;28;20258;-56
2023/12/25 05:50:58;;;;;;;0.10;0.10;;;10.50;99.90;;;;;;5070805;28;20223;-62
2023/12/25 05:53:27;;;;;;;0.52;0.00;;;10.50;99.90;;;;;;5071050;28;20252;-59
2023/12/25 05:55:55;;;;;;;0.05;0.05;;;10.50;99.90;;;;;;5070782;28;20260;-54
2023/12/25 05:58:23;;;;;;;0.28;0.00;;;10.50;99.90;;;;;;5070898;28;20243;-56
2023/12/25 06:00:51;;;;;;;0.30;0.30;;;10.50;99.90;;;;;;5070780;28;20204;-56
2023/12/25 06:03:19;;;;;;;0.08;0.08;;;10.50;99.90;;;;;;5061438;28;20240;-56
2023/12/25 06:05:47;;;;;;;0.00;0.00;;;10.50;99.90;;;;;;5059611;28;20216;-56
2023/12/25 06:08:15;;;;;;;0.00;0.00;;;10.40;99.90;;;;;;5059738;28;20197;-56
2023/12/25 06:10:44;;;;;;;0.32;0.10;;;10.40;99.90;;;;;;5065294;28;20236;-57
2023/12/25 06:13:12;;;;;;;0.03;0.03;;;10.40;99.90;;;;;;5070523;28;20257;-55
2023/12/25 06:15:40;;;;;;;0.00;0.00;;;10.50;99.90;;;;;;5069893;28;20209;-55
2023/12/25 06:18:08;;;;;;;0.32;0.00;;;10.40;99.90;;;;;;5054727;28;20287;-55
2023/12/25 06:20:36;;;;;;;0.03;0.03;;;10.40;99.90;;;;;;5063614;28;20201;-54
2023/12/25 06:23:04;;;;;;;0.20;0.20;;;10.50;99.90;;;;;;5063049;28;20645;-56
2023/12/25 06:25:32;;;;;;;0.10;0.10;;;10.40;99.90;;;;;;5063231;28;20223;-56
2023/12/25 06:28:01;;;;;;;1.20;0.10;;;10.40;99.90;;;;;;5070750;28;20591;-56
2023/12/25 06:30:29;;;;;;;0.10;0.10;;;10.40;99.90;;;;;;5057159;28;20225;-57
2023/12/25 06:32:57;;;;;;;0.20;0.00;;;10.40;99.90;;;;;;5057764;28;20229;-56
2023/12/25 06:35:26;;;;;;;0.47;0.10;;;10.40;99.90;;;;;;5070325;28;20262;-56
2023/12/25 06:37:54;;;;;;;0.20;0.10;;;10.40;99.90;;;;;;5070407;28;20225;-55
2023/12/25 06:40:22;;;;;;;0.00;0.00;;;10.30;99.90;;;;;;5073344;28;20732;-55
2023/12/25 06:42:50;;;;;;;3.00;0.10;;;10.30;99.90;;;;;;5066596;28;20233;-56
2023/12/25 06:45:19;;;;;;;0.10;0.10;;;10.30;99.90;;;;;;5065533;28;20217;-56
2023/12/25 06:47:47;;;;;;;0.70;0.10;;;10.20;99.90;;;;;;5074032;28;20228;-57
2023/12/25 06:50:15;;;;;;;0.10;0.10;;;10.20;99.90;;;;;;5066334;28;20279;-57
2023/12/25 06:52:44;;;;;;;1.95;0.10;;;10.20;99.90;;;;;;5066503;28;20229;-60
2023/12/25 06:55:12;;;;;;;0.00;0.00;;;10.10;99.90;;;;;;5071062;28;20290;-59
2023/12/25 06:57:39;;;;;;;0.30;0.13;;;10.10;99.90;;;;;;5069015;28;20316;-61
2023/12/25 07:00:09;;;;;;;0.10;0.03;;;10.10;99.90;;;;;;5064124;28;20218;-56
2023/12/25 07:02:39;;;;;;;0.28;0.10;;;10.10;99.90;;;;;;5065959;28;20727;-56
2023/12/25 07:05:08;;;;;;;1.58;0.13;;;10.10;99.90;;;;;;5066219;28;20294;-56
2023/12/25 07:07:36;;;;;;;0.20;0.10;;;10.00;99.90;;;;;;5058652;28;20229;-56
2023/12/25 07:10:06;;;;;;;0.13;0.00;;;10.00;99.90;;;;;;5073886;28;20208;-56
2023/12/25 07:12:33;;;;;;;1.13;0.17;;;10.00;99.90;;;;;;5066622;28;20552;-57
2023/12/25 07:15:01;;;;;;;0.10;0.10;;;10.00;99.90;;;;;;5065575;28;20260;-55
2023/12/25 07:17:31;;;;;;;0.28;0.10;;;9.90;99.90;;;;;;5068919;28;20236;-56
2023/12/25 07:20:00;;;;;;;0.00;0.00;;;9.90;99.90;;;;;;5070249;28;20244;-56
2023/12/25 07:22:29;;;;;;;0.82;0.00;;;9.90;99.90;;;;;;5065756;28;20670;-56
2023/12/25 07:24:56;;;;;;;0.22;0.00;;;9.90;99.90;;;;;;5065945;28;20228;-55
2023/12/25 07:27:24;;;;;;;0.20;0.20;;;9.90;99.90;;;;;;5062638;28;20255;-56
2023/12/25 07:29:52;;;;;;;0.00;0.00;;;9.90;99.90;;;;;;5060489;28;20232;-57
2023/12/25 07:32:20;;;;;;;0.10;0.10;;;9.90;99.90;;;;;;5073418;28;20638;-58
2023/12/25 07:34:52;;;;;;;0.10;0.10;;;9.90;99.90;;;;;;5073549;28;20209;-56
2023/12/25 07:37:21;;;;;;;0.77;0.10;;;9.90;99.90;;;;;;5073236;28;20685;-55
2023/12/25 07:39:49;;;;;;;0.43;0.03;;;9.90;99.90;;;;;;5073574;28;20210;-55
2023/12/25 07:42:17;;;;;;;0.10;0.10;;;9.90;99.90;;;;;;5073443;28;20211;-56
2023/12/25 07:44:45;;;;;;;0.80;0.10;;;9.90;99.90;;;;;;5067947;28;20318;-57
2023/12/25 07:47:13;;;;;;;3.60;0.10;;;9.90;99.90;;;;;;5066960;28;20202;-56
2023/12/25 07:49:41;;;;;;;0.10;0.10;;;9.90;99.90;;;;;;5061091;28;20756;-56
2023/12/25 07:52:09;;;;;;;0.20;0.10;;;9.90;99.90;;;;;;5062326;28;20281;-55
2023/12/25 07:54:38;;;;;;;0.00;0.00;;;9.90;99.90;;;;;;5069492;28;20316;-57
2023/12/25 07:57:06;;;;;;;0.10;0.10;;;9.90;99.90;;;;;;5061525;28;20304;-56
2023/12/25 07:59:34;;;;;;;2.35;0.10;;;9.90;99.90;;;;;;5057797;28;20205;-55
2023/12/25 08:02:02;;;;;;;2.92;0.10;;;9.90;99.90;;;;;;5065030;28;20206;-56
2023/12/25 08:04:30;;;;;;;0.22;0.10;;;9.90;99.90;;;;;;5068477;28;20294;-55
2023/12/25 08:06:58;;;;;;;0.08;0.08;;;9.90;99.90;;;;;;5064603;28;20732;-55
2023/12/25 08:09:26;;;;;;;0.30;0.03;;;9.90;99.90;;;;;;5072383;28;22113;-56
2023/12/25 08:11:55;;;;;;;0.10;0.10;;;9.90;99.90;;;;;;5072429;28;20268;-55
2023/12/25 08:14:23;;;;;;;0.05;0.05;;;10.00;99.90;;;;;;5068512;28;20646;-54
2023/12/25 08:16:51;;;;;;;0.10;0.10;;;10.00;99.90;;;;;;5066458;28;20264;-56
2023/12/25 08:19:19;;;;;;;0.30;0.10;;;10.00;99.90;;;;;;5058179;28;20229;-55
2023/12/25 08:21:47;;;;;;;0.03;0.03;;;10.00;99.90;;;;;;5063099;28;20607;-55
2023/12/25 08:24:15;;;;;;;0.60;0.10;;;9.90;99.90;;;;;;5072226;28;20772;-55
2023/12/25 08:26:43;;;;;;;1.45;0.10;;;10.00;99.90;;;;;;5072248;28;20642;-55
2023/12/25 08:29:12;;;;;;;0.00;0.00;;;10.00;99.90;;;;;;5071687;28;20202;-56
2023/12/25 08:31:40;;;;;;;0.00;0.00;;;10.00;99.90;;;;;;5065262;28;20266;-55
2023/12/25 08:34:08;;;;;;;0.10;0.10;;;10.00;99.90;;;;;;5069225;28;20309;-56
2023/12/25 08:36:36;;;;;;;0.52;0.00;;;10.00;99.90;;;;;;5071485;28;20205;-56
2023/12/25 08:39:04;;;;;;;0.47;0.10;;;10.00;99.90;;;;;;5066353;28;20217;-57
2023/12/25 08:41:32;;;;;;;0.10;0.10;;;10.00;99.90;;;;;;5072244;28;20209;-55
2023/12/25 08:44:00;;;;;;;0.25;0.25;;;10.00;99.90;;;;;;5071943;28;20728;-57
2023/12/25 08:46:29;;;;;;;0.10;0.10;;;10.10;99.90;;;;;;5071591;28;20240;-56
2023/12/25 08:48:57;;;;;;;0.63;0.10;;;10.10;99.90;;;;;;5071634;28;20201;-56
2023/12/25 08:51:26;;;;;;;0.10;0.10;;;10.10;99.90;;;;;;5071681;28;20239;-56
2023/12/25 08:53:54;;;;;;;0.10;0.10;;;10.10;99.90;;;;;;5071604;28;20342;-55
2023/12/25 08:56:25;;;;;;;0.93;0.00;;;10.10;99.90;;;;;;5069078;28;20213;-56
2023/12/25 08:58:53;;;;;;;0.10;0.10;;;10.10;99.90;;;;;;5070734;28;20699;-56
2023/12/25 09:01:22;;;;;;;0.10;0.00;;;10.10;99.90;;;;;;5071208;28;20229;-56
2023/12/25 09:03:52;;;;;;;0.10;0.10;;;10.10;99.90;;;;;;5071402;28;20220;-56
2023/12/25 09:06:20;;;;;;;1.08;0.13;;;10.10;99.90;;;;;;5070616;28;20236;-55
2023/12/25 09:08:48;;;;;;;0.10;0.10;;;10.20;99.90;;;;;;5065821;28;20202;-56
2023/12/25 09:11:16;;;;;;;0.10;0.10;;;10.20;99.90;;;;;;5065161;28;20201;-57
2023/12/25 09:13:44;;;;;;;0.25;0.05;;;10.20;99.90;;;;;;5068888;28;20776;-55
2023/12/25 09:16:12;;;;;;;0.40;0.10;;;10.20;99.90;;;;;;5070188;28;20296;-56
2023/12/25 09:18:40;;;;;;;0.10;0.10;;;10.20;99.90;;;;;;5070862;28;20669;-56
2023/12/25 09:21:10;;;;;;;0.10;0.10;;;10.20;99.90;;;;;;5071708;28;20205;-55
2023/12/25 09:23:38;;;;;;;0.10;0.10;;;10.20;99.90;;;;;;5071557;28;20237;-56
2023/12/25 09:26:06;;;;;;;0.10;0.10;;;10.30;99.90;;;;;;5056243;28;20214;-55
2023/12/25 09:28:34;;;;;;;0.10;0.10;;;10.30;99.90;;;;;;5070563;28;20280;-58
2023/12/25 09:31:02;;;;;;;0.10;0.10;;;10.30;99.90;;;;;;5071160;28;20274;-56
2023/12/25 09:33:30;;;;;;;0.70;0.15;;;10.30;99.90;;;;;;5061054;28;20307;-55
2023/12/25 09:35:58;;;;;;;0.10;0.10;;;10.30;99.90;;;;;;5066422;28;20213;-56
2023/12/25 09:38:27;;;;;;;0.10;0.10;;;10.30;99.90;;;;;;5058569;28;20593;-55
2023/12/25 09:40:56;;;;;;;0.10;0.10;;;10.30;99.90;;;;;;5064757;28;20228;-57
2023/12/25 09:43:27;;;;;;;0.08;0.08;;;10.30;99.90;;;;;;5075867;22;20496;-59
2023/12/25 09:45:55;;;;;;;0.00;0.00;;;10.30;99.90;;;;;;5030582;28;20234;-60
2023/12/25 09:48:22;;;;;;;0.10;0.10;;;10.30;99.90;;;;;;5025010;28;20222;-60
2023/12/25 09:50:51;;;;;;;0.10;0.10;;;10.40;99.90;;;;;;5027880;28;20214;-59
2023/12/25 09:53:18;;;;;;;0.17;0.10;;;10.40;99.90;;;;;;5030853;28;20218;-60
2023/12/25 09:55:51;;;;;;;0.52;0.10;;;10.40;99.90;;;;;;5048984;28;20220;-59
2023/12/25 09:58:19;;;;;;;0.08;0.08;;;10.40;99.90;;;;;;5049185;28;20726;-59
2023/12/25 10:00:47;;;;;;;0.00;0.00;;;10.40;99.90;;;;;;5048283;28;20281;-60
2023/12/25 10:03:15;;;;;;;0.08;0.08;;;10.50;99.90;;;;;;5049638;28;20703;-59
2023/12/25 10:05:44;;;;;;;0.00;0.00;;;10.50;99.90;;;;;;5049687;28;20214;-59
2023/12/25 10:08:12;;;;;;;0.00;0.00;;;10.50;99.90;;;;;;5050646;28;20201;-61
2023/12/25 10:10:39;;;;;;;0.00;0.00;;;10.50;99.90;;;;;;5035408;28;20240;-59
2023/12/25 10:13:09;;;;;;;0.10;0.10;;;10.60;99.90;;;;;;5050816;28;20253;-60
2023/12/25 10:15:37;;;;;;;0.10;0.00;;;10.60;99.90;;;;;;5044186;28;20237;-60
2023/12/25 10:18:06;;;;;;;0.10;0.10;;;10.70;99.90;;;;;;5043946;28;20234;-60
2023/12/25 10:20:34;;;;;;;0.08;0.08;;;10.70;99.90;;;;;;5046426;28;20248;-61
2023/12/25 10:23:04;;;;;;;0.10;0.10;;;10.60;99.90;;;;;;5050636;28;20213;-60
2023/12/25 10:25:45;;;;;;;0.10;0.10;;;10.70;99.90;;;;;;5046277;28;20224;-60
2023/12/25 10:28:14;;;;;;;0.00;0.00;;;10.70;99.90;;;;;;5053526;28;20287;-60
2023/12/25 10:30:42;;;;;;;0.08;0.08;;;10.70;99.90;;;;;;5046307;28;20244;-61
2023/12/25 10:33:12;;;;;;;0.85;0.10;;;10.70;99.90;;;;;;5052907;28;20225;-60
2023/12/25 10:35:41;;;;;;;1.55;0.10;;;10.70;99.90;;;;;;5040211;28;20214;-61
2023/12/25 10:38:20;;;;;;;1.20;0.05;;;10.70;99.90;;;;;;5047644;28;20229;-60
2023/12/25 10:40:48;;;;;;;0.10;0.10;;;10.70;99.90;;;;;;5039445;28;20877;-59
2023/12/25 10:43:17;;;;;;;0.10;0.10;;;10.80;99.90;;;;;;5038689;28;20261;-58
2023/12/25 10:45:50;;;;;;;0.08;0.08;;;10.80;99.90;;;;;;5040199;28;20707;-58
2023/12/25 10:48:19;;;;;;;2.05;0.10;;;10.80;99.90;;;;;;5044034;28;20223;-58
2023/12/25 10:50:47;;;;;;;0.10;0.10;;;10.80;99.90;;;;;;5045265;28;20286;-59
2023/12/25 10:53:16;;;;;;;0.00;0.00;;;10.80;99.90;;;;;;5037704;28;20254;-61
2023/12/25 10:55:45;;;;;;;0.52;0.00;;;10.80;99.90;;;;;;5043379;28;20630;-59
2023/12/25 10:58:14;;;;;;;0.00;0.00;;;10.80;99.90;;;;;;5052994;28;20238;-59
2023/12/25 11:00:44;;;;;;;0.00;0.00;;;10.80;99.90;;;;;;5050827;28;20264;-60
2023/12/25 11:03:14;;;;;;;0.00;0.00;;;10.80;99.90;;;;;;5043960;28;20258;-58
2023/12/25 11:05:43;;;;;;;3.92;0.38;;;10.90;99.90;;;;;;5045748;28;20214;-58
2023/12/25 11:08:11;;;;;;;0.00;0.00;;;10.90;99.90;;;;;;5050005;28;20224;-60
2023/12/25 11:10:40;;;;;;;0.10;0.10;;;10.90;99.90;;;;;;5035768;28;20284;-59
2023/12/25 11:13:07;;;;;;;1.05;0.20;;;10.90;99.90;;;;;;5046837;28;20309;-59
2023/12/25 11:15:35;;;;;;;0.15;0.10;;;10.90;99.90;;;;;;5051190;28;20628;-60
2023/12/25 11:18:07;;;;;;;0.10;0.10;;;10.90;99.90;;;;;;5047335;28;20790;-58
2023/12/25 11:20:35;;;;;;;0.00;0.00;;;10.90;99.90;;;;;;5045455;28;20202;-60
2023/12/25 11:23:03;;;;;;;0.00;0.00;;;10.90;99.90;;;;;;5044195;28;20210;-59
2023/12/25 11:25:33;;;;;;;0.20;0.20;;;11.00;99.90;;;;;;5044905;28;20237;-59
2023/12/25 11:28:03;;;;;;;0.47;0.20;;;11.00;99.90;;;;;;5047231;28;20638;-59
2023/12/25 11:30:32;;;;;;;0.00;0.00;;;10.90;99.90;;;;;;5046614;28;20682;-58
2023/12/25 11:33:01;;;;;;;0.10;0.10;;;11.00;99.90;;;;;;5043888;28;20206;-60
2023/12/25 11:35:32;;;;;;;0.00;0.00;;;11.00;99.90;;;;;;5045162;28;20203;-59
2023/12/25 11:38:29;;;;;;;0.70;0.13;;;11.00;99.90;;;;;;5047138;28;20666;-60
2023/12/25 11:41:01;;;;;;;0.13;0.13;;;11.00;99.90;;;;;;5033415;28;20210;-59
2023/12/25 11:43:33;;;;;;;0.00;0.00;;;11.00;99.90;;;;;;5033711;28;20258;-58
2023/12/25 11:46:02;;;;;;;0.60;0.00;;;11.00;99.90;;;;;;5033608;28;20261;-59
2023/12/25 11:48:32;;;;;;;0.22;0.10;;;11.00;99.90;;;;;;5033297;28;20727;-60
2023/12/25 11:51:02;;;;;;;0.00;0.00;;;11.00;99.90;;;;;;5033607;28;20199;-59
2023/12/25 11:53:36;;;;;;;0.00;0.00;;;11.00;99.90;;;;;;5033482;28;20254;-59
2023/12/25 11:56:06;;;;;;;0.43;0.00;;;11.00;99.90;;;;;;5033670;28;20206;-60
2023/12/25 11:58:34;;;;;;;0.10;0.10;;;11.00;99.90;;;;;;5033116;28;20617;-59
2023/12/25 12:01:03;;;;;;;0.10;0.10;;;11.00;99.90;;;;;;5033392;28;20249;-59
2023/12/25 12:03:31;;;;;;;0.10;0.10;;;11.00;99.90;;;;;;5033190;28;20227;-59
2023/12/25 12:06:01;;;;;;;0.10;0.10;;;11.00;99.90;;;;;;5032883;28;20574;-59
2023/12/25 12:08:29;;;;;;;0.00;0.00;;;11.00;99.90;;;;;;5033228;28;20202;-60
2023/12/25 12:10:59;;;;;;;0.00;0.00;;;11.00;99.90;;;;;;5032935;28;20614;-61
2023/12/25 12:13:27;;;;;;;0.10;0.10;;;11.10;99.90;;;;;;5033235;28;20226;-60
2023/12/25 12:15:55;;;;;;;0.00;0.00;;;11.10;99.90;;;;;;5032635;28;20209;-60
2023/12/25 12:18:23;;;;;;;0.00;0.00;;;11.10;99.90;;;;;;5032924;28;20233;-61
2023/12/25 12:20:51;;;;;;;0.10;0.10;;;11.10;99.90;;;;;;5032756;28;20255;-60
2023/12/25 12:23:20;;;;;;;0.10;0.10;;;11.10;99.90;;;;;;5033063;28;20222;-61
2023/12/25 12:25:48;;;;;;;0.00;0.00;;;11.10;99.90;;;;;;5032599;28;20241;-59
2023/12/25 12:28:16;;;;;;;0.10;0.08;;;11.10;99.90;;;;;;5032754;28;20237;-60
2023/12/25 12:30:47;;;;;;;0.10;0.10;;;11.10;99.90;;;;;;5032361;28;20209;-60
2023/12/25 12:33:15;;;;;;;1.65;0.15;;;11.20;99.90;;;;;;5032961;28;20225;-58
2023/12/25 12:35:44;;;;;;;0.10;0.10;;;11.20;99.90;;;;;;5031773;28;20562;-59
2023/12/25 12:38:12;;;;;;;0.10;0.10;;;11.20;99.90;;;;;;5032123;28;20273;-60
2023/12/25 12:40:42;;;;;;;1.17;0.13;;;11.20;99.90;;;;;;5032342;28;20261;-59
2023/12/25 12:43:09;;;;;;;0.10;0.10;;;11.10;99.90;;;;;;5032399;28;20730;-59
2023/12/25 12:45:38;;;;;;;0.10;0.10;;;11.20;99.90;;;;;;5031882;28;20242;-58
2023/12/25 12:48:06;;;;;;;1.45;0.10;;;11.20;99.90;;;;;;5032470;28;20227;-60
2023/12/25 12:50:34;;;;;;;1.40;0.10;;;11.20;99.90;;;;;;5032220;28;20209;-58
2023/12/25 12:53:03;;;;;;;2.13;0.17;;;11.20;99.90;;;;;;5032350;28;20211;-59
2023/12/25 12:55:33;;;;;;;0.10;0.10;;;11.10;99.90;;;;;;5031996;28;20206;-59